sensor_id;sensor_type;location;lat;lon;timestamp;pressure;altitude;pressure_sealevel;temperature;humidity
47763;BME280;33526;42.690;23.322;2023-02-11T00:00:07;96648.34;;;-3.65;63.98
47763;BME280;33526;42.690;23.322;2023-02-11T00:02:33;96609.06;;;-3.94;64.14
47763;BME280;33526;42.690;23.322;2023-02-11T00:04:59;96591.97;;;-4.03;64.17
47763;BME280;33526;42.690;23.322;2023-02-11T00:07:31;96634.13;;;-3.92;64.04
47763;BME280;33526;42.690;23.322;2023-02-11T00:09:57;96677.63;;;-3.53;64.21
47763;BME280;33526;42.690;23.322;2023-02-11T00:12:22;96611.22;;;-3.99;63.96
47763;BME280;33526;42.690;23.322;2023-02-11T00:14:48;96600.56;;;-4.13;63.96
47763;BME280;33526;42.690;23.322;2023-02-11T00:17:15;96677.97;;;-3.67;64.20
47763;BME280;33526;42.690;23.322;2023-02-11T00:19:40;96742.81;;;-3.22;63.97
47763;BME280;33526;42.690;23.322;2023-02-11T00:22:06;96544.41;;;-4.56;64.56
47763;BME280;33526;42.690;23.322;2023-02-11T00:24:31;96741.41;;;-3.28;64.46
47763;BME280;33526;42.690;23.322;2023-02-11T00:26:57;96684.56;;;-3.68;64.39
47763;BME280;33526;42.690;23.322;2023-02-11T00:29:23;96609.78;;;-4.18;63.65
47763;BME280;33526;42.690;23.322;2023-02-11T00:31:49;96714.59;;;-3.47;63.58
47763;BME280;33526;42.690;23.322;2023-02-11T00:34:15;96738.19;;;-3.42;64.09
47763;BME280;33526;42.690;23.322;2023-02-11T00:36:40;96560.81;;;-4.56;64.16
47763;BME280;33526;42.690;23.322;2023-02-11T00:39:06;96553.59;;;-4.61;63.70
47763;BME280;33526;42.690;23.322;2023-02-11T00:41:32;96750.31;;;-3.31;64.06
47763;BME280;33526;42.690;23.322;2023-02-11T00:43:58;96723.13;;;-3.49;63.68
47763;BME280;33526;42.690;23.322;2023-02-11T00:46:23;96656.00;;;-3.92;63.38
47763;BME280;33526;42.690;23.322;2023-02-11T00:48:49;96669.91;;;-3.85;63.82
47763;BME280;33526;42.690;23.322;2023-02-11T00:51:16;96622.44;;;-4.13;63.57
47763;BME280;33526;42.690;23.322;2023-02-11T00:53:43;96615.09;;;-4.22;63.45
47763;BME280;33526;42.690;23.322;2023-02-11T00:56:09;96602.75;;;-4.40;63.83
47763;BME280;33526;42.690;23.322;2023-02-11T00:58:35;96631.94;;;-4.32;63.43
47763;BME280;33526;42.690;23.322;2023-02-11T01:01:01;96719.19;;;-3.72;63.89
47763;BME280;33526;42.690;23.322;2023-02-11T01:03:27;96620.31;;;-4.29;63.84
47763;BME280;33526;42.690;23.322;2023-02-11T01:05:53;96722.16;;;-3.65;63.42
47763;BME280;33526;42.690;23.322;2023-02-11T01:08:18;96742.22;;;-3.61;63.50
47763;BME280;33526;42.690;23.322;2023-02-11T01:10:44;96722.38;;;-3.70;63.79
47763;BME280;33526;42.690;23.322;2023-02-11T01:13:10;96630.72;;;-4.22;63.68
47763;BME280;33526;42.690;23.322;2023-02-11T01:15:35;96581.53;;;-4.55;63.53
47763;BME280;33526;42.690;23.322;2023-02-11T01:18:01;96653.22;;;-4.04;63.63
47763;BME280;33526;42.690;23.322;2023-02-11T01:20:27;96636.84;;;-4.25;63.76
47763;BME280;33526;42.690;23.322;2023-02-11T01:22:55;96701.69;;;-3.80;64.00
47763;BME280;33526;42.690;23.322;2023-02-11T01:25:20;96674.66;;;-3.94;64.01
47763;BME280;33526;42.690;23.322;2023-02-11T01:27:46;96640.84;;;-4.23;63.59
47763;BME280;33526;42.690;23.322;2023-02-11T01:30:13;96626.47;;;-4.32;63.92
47763;BME280;33526;42.690;23.322;2023-02-11T01:32:39;96695.44;;;-3.80;64.08
47763;BME280;33526;42.690;23.322;2023-02-11T01:35:05;96611.06;;;-4.36;63.81
47763;BME280;33526;42.690;23.322;2023-02-11T01:37:34;96658.94;;;-4.18;63.96
47763;BME280;33526;42.690;23.322;2023-02-11T01:40:11;96714.25;;;-3.79;64.03
47763;BME280;33526;42.690;23.322;2023-02-11T01:42:37;96711.06;;;-3.81;64.36
47763;BME280;33526;42.690;23.322;2023-02-11T01:48:03;96632.06;;;-4.49;63.83
47763;BME280;33526;42.690;23.322;2023-02-11T01:50:29;96627.06;;;-4.47;64.65
47763;BME280;33526;42.690;23.322;2023-02-11T01:52:55;96622.94;;;-4.53;64.80
47763;BME280;33526;42.690;23.322;2023-02-11T01:55:40;96653.91;;;-4.28;64.48
47763;BME280;33526;42.690;23.322;2023-02-11T01:58:25;96638.06;;;-4.35;64.19
47763;BME280;33526;42.690;23.322;2023-02-11T02:00:53;96606.09;;;-4.55;65.03
47763;BME280;33526;42.690;23.322;2023-02-11T02:03:21;96636.66;;;-4.41;64.19
47763;BME280;33526;42.690;23.322;2023-02-11T02:05:58;96680.94;;;-4.14;64.82
47763;BME280;33526;42.690;23.322;2023-02-11T02:08:54;96695.34;;;-4.05;64.53
47763;BME280;33526;42.690;23.322;2023-02-11T02:11:22;96667.69;;;-4.25;64.44
47763;BME280;33526;42.690;23.322;2023-02-11T02:13:47;96603.56;;;-4.61;64.50
47763;BME280;33526;42.690;23.322;2023-02-11T02:16:16;96711.00;;;-3.93;64.91
47763;BME280;33526;42.690;23.322;2023-02-11T02:22:51;96704.66;;;-4.06;64.83
47763;BME280;33526;42.690;23.322;2023-02-11T02:31:27;96710.78;;;-4.09;64.81
47763;BME280;33526;42.690;23.322;2023-02-11T02:34:05;96603.69;;;-4.78;64.62
47763;BME280;33526;42.690;23.322;2023-02-11T02:36:37;96600.69;;;-4.85;65.03
47763;BME280;33526;42.690;23.322;2023-02-11T02:39:21;96709.09;;;-4.14;64.90
47763;BME280;33526;42.690;23.322;2023-02-11T02:41:49;96681.22;;;-4.28;64.80
47763;BME280;33526;42.690;23.322;2023-02-11T02:44:17;96700.75;;;-4.17;64.68
47763;BME280;33526;42.690;23.322;2023-02-11T02:46:43;96605.16;;;-4.81;64.91
47763;BME280;33526;42.690;23.322;2023-02-11T02:49:12;96628.97;;;-4.69;65.11
47763;BME280;33526;42.690;23.322;2023-02-11T02:52:22;96704.13;;;-4.20;64.88
47763;BME280;33526;42.690;23.322;2023-02-11T03:11:16;96708.66;;;-4.46;65.54
47763;BME280;33526;42.690;23.322;2023-02-11T03:13:43;96685.59;;;-4.57;65.40
47763;BME280;33526;42.690;23.322;2023-02-11T03:16:13;96702.66;;;-4.39;65.43
47763;BME280;33526;42.690;23.322;2023-02-11T03:18:41;96614.97;;;-5.09;65.22
47763;BME280;33526;42.690;23.322;2023-02-11T03:21:09;96643.59;;;-4.94;65.53
47763;BME280;33526;42.690;23.322;2023-02-11T03:23:45;96590.16;;;-5.25;64.98
47763;BME280;33526;42.690;23.322;2023-02-11T03:26:18;96627.88;;;-4.97;65.50
47763;BME280;33526;42.690;23.322;2023-02-11T03:29:26;96705.78;;;-4.49;65.70
47763;BME280;33526;42.690;23.322;2023-02-11T03:32:03;96643.53;;;-4.86;65.73
47763;BME280;33526;42.690;23.322;2023-02-11T03:34:43;96592.44;;;-5.27;65.60
47763;BME280;33526;42.690;23.322;2023-02-11T03:37:18;96706.91;;;-4.50;65.58
47763;BME280;33526;42.690;23.322;2023-02-11T03:39:53;96690.78;;;-4.64;65.54
47763;BME280;33526;42.690;23.322;2023-02-11T03:42:23;96650.63;;;-4.93;65.35
47763;BME280;33526;42.690;23.322;2023-02-11T03:45:12;96697.97;;;-4.59;65.85
47763;BME280;33526;42.690;23.322;2023-02-11T03:47:44;96676.91;;;-4.80;65.08
47763;BME280;33526;42.690;23.322;2023-02-11T03:50:12;96696.38;;;-4.61;65.38
47763;BME280;33526;42.690;23.322;2023-02-11T03:52:39;96532.78;;;-5.67;65.53
47763;BME280;33526;42.690;23.322;2023-02-11T03:55:12;96636.72;;;-5.01;66.25
47763;BME280;33526;42.690;23.322;2023-02-11T03:57:39;96647.72;;;-4.88;65.72
47763;BME280;33526;42.690;23.322;2023-02-11T04:00:06;96679.72;;;-4.68;65.80
47763;BME280;33526;42.690;23.322;2023-02-11T04:02:36;96604.28;;;-5.23;65.77
47763;BME280;33526;42.690;23.322;2023-02-11T04:05:06;96561.47;;;-5.61;65.31
47763;BME280;33526;42.690;23.322;2023-02-11T04:07:32;96676.25;;;-4.77;65.40
47763;BME280;33526;42.690;23.322;2023-02-11T04:09:58;96668.38;;;-4.78;65.59
47763;BME280;33526;42.690;23.322;2023-02-11T04:12:23;96664.91;;;-4.88;65.51
47763;BME280;33526;42.690;23.322;2023-02-11T04:14:49;96582.16;;;-5.30;65.82
47763;BME280;33526;42.690;23.322;2023-02-11T04:17:14;96695.25;;;-4.59;65.83
47763;BME280;33526;42.690;23.322;2023-02-11T04:19:40;96629.22;;;-5.04;65.33
47763;BME280;33526;42.690;23.322;2023-02-11T04:22:06;96528.47;;;-5.68;65.52
47763;BME280;33526;42.690;23.322;2023-02-11T04:24:33;96658.25;;;-5.08;65.80
47763;BME280;33526;42.690;23.322;2023-02-11T04:26:59;96615.13;;;-5.14;65.78
47763;BME280;33526;42.690;23.322;2023-02-11T04:29:24;96635.13;;;-5.02;65.77
47763;BME280;33526;42.690;23.322;2023-02-11T04:31:50;96623.47;;;-5.11;65.54
47763;BME280;33526;42.690;23.322;2023-02-11T04:34:15;96605.84;;;-5.22;65.50
47763;BME280;33526;42.690;23.322;2023-02-11T04:36:41;96631.47;;;-5.06;66.14
47763;BME280;33526;42.690;23.322;2023-02-11T04:39:07;96670.44;;;-4.75;66.08
47763;BME280;33526;42.690;23.322;2023-02-11T04:41:33;96546.69;;;-5.60;66.00
47763;BME280;33526;42.690;23.322;2023-02-11T04:43:59;96546.06;;;-5.57;65.78
47763;BME280;33526;42.690;23.322;2023-02-11T04:46:25;96674.38;;;-4.85;66.00
47763;BME280;33526;42.690;23.322;2023-02-11T04:48:51;96547.75;;;-5.73;65.80
47763;BME280;33526;42.690;23.322;2023-02-11T04:51:17;96545.84;;;-5.82;66.33
47763;BME280;33526;42.690;23.322;2023-02-11T04:53:43;96514.06;;;-5.99;66.50
47763;BME280;33526;42.690;23.322;2023-02-11T04:56:11;96579.81;;;-5.79;66.92
47763;BME280;33526;42.690;23.322;2023-02-11T04:58:37;96558.44;;;-5.98;67.69
47763;BME280;33526;42.690;23.322;2023-02-11T05:01:11;96624.81;;;-5.64;67.99
47763;BME280;33526;42.690;23.322;2023-02-11T05:03:37;96683.53;;;-5.28;68.72
47763;BME280;33526;42.690;23.322;2023-02-11T05:06:03;96682.78;;;-5.38;69.03
47763;BME280;33526;42.690;23.322;2023-02-11T05:08:29;96653.00;;;-5.60;68.96
47763;BME280;33526;42.690;23.322;2023-02-11T05:10:55;96570.63;;;-6.04;69.33
47763;BME280;33526;42.690;23.322;2023-02-11T05:13:21;96681.13;;;-5.30;69.34
47763;BME280;33526;42.690;23.322;2023-02-11T05:15:47;96502.81;;;-6.44;69.26
47763;BME280;33526;42.690;23.322;2023-02-11T05:18:12;96593.94;;;-5.86;69.85
47763;BME280;33526;42.690;23.322;2023-02-11T05:20:41;96552.69;;;-6.05;69.60
47763;BME280;33526;42.690;23.322;2023-02-11T05:23:07;96528.09;;;-6.35;69.39
47763;BME280;33526;42.690;23.322;2023-02-11T05:25:33;96507.50;;;-6.62;69.62
47763;BME280;33526;42.690;23.322;2023-02-11T05:27:58;96583.66;;;-6.19;69.42
47763;BME280;33526;42.690;23.322;2023-02-11T05:30:25;96488.78;;;-6.81;69.80
47763;BME280;33526;42.690;23.322;2023-02-11T05:32:50;96648.41;;;-5.68;69.73
47763;BME280;33526;42.690;23.322;2023-02-11T05:35:16;96666.00;;;-5.57;69.90
47763;BME280;33526;42.690;23.322;2023-02-11T05:37:41;96581.38;;;-6.17;69.07
47763;BME280;33526;42.690;23.322;2023-02-11T05:40:07;96558.69;;;-6.47;69.33
47763;BME280;33526;42.690;23.322;2023-02-11T05:42:33;96491.69;;;-7.04;69.67
47763;BME280;33526;42.690;23.322;2023-02-11T05:44:59;96568.94;;;-6.70;69.80
47763;BME280;33526;42.690;23.322;2023-02-11T05:47:25;96624.03;;;-6.38;70.45
47763;BME280;33526;42.690;23.322;2023-02-11T05:49:53;96607.56;;;-6.68;70.34
47763;BME280;33526;42.690;23.322;2023-02-11T05:52:19;96661.97;;;-6.50;70.66
47763;BME280;33526;42.690;23.322;2023-02-11T05:54:45;96589.59;;;-7.04;70.55
47763;BME280;33526;42.690;23.322;2023-02-11T05:57:10;96560.09;;;-7.37;70.96
47763;BME280;33526;42.690;23.322;2023-02-11T05:59:36;96629.91;;;-6.88;70.81
47763;BME280;33526;42.690;23.322;2023-02-11T06:02:01;96539.13;;;-7.54;71.07
47763;BME280;33526;42.690;23.322;2023-02-11T06:04:27;96608.59;;;-7.13;71.54
47763;BME280;33526;42.690;23.322;2023-02-11T06:06:52;96595.31;;;-7.14;71.75
47763;BME280;33526;42.690;23.322;2023-02-11T06:09:18;96580.69;;;-7.44;71.92
47763;BME280;33526;42.690;23.322;2023-02-11T06:11:43;96611.50;;;-7.09;72.19
47763;BME280;33526;42.690;23.322;2023-02-11T06:14:09;96617.13;;;-6.97;71.97
47763;BME280;33526;42.690;23.322;2023-02-11T06:16:35;96658.25;;;-6.72;71.76
47763;BME280;33526;42.690;23.322;2023-02-11T06:19:01;96596.63;;;-7.03;71.50
47763;BME280;33526;42.690;23.322;2023-02-11T06:21:26;96680.53;;;-6.53;71.38
47763;BME280;33526;42.690;23.322;2023-02-11T06:23:51;96661.16;;;-6.60;71.32
47763;BME280;33526;42.690;23.322;2023-02-11T06:26:19;96666.16;;;-6.44;71.53
47763;BME280;33526;42.690;23.322;2023-02-11T06:28:45;96592.94;;;-6.81;71.30
47763;BME280;33526;42.690;23.322;2023-02-11T06:31:11;96702.97;;;-6.03;71.20
47763;BME280;33526;42.690;23.322;2023-02-11T06:33:37;96614.59;;;-6.41;70.53
47763;BME280;33526;42.690;23.322;2023-02-11T06:36:08;96703.53;;;-5.71;70.29
47763;BME280;33526;42.690;23.322;2023-02-11T06:38:36;96681.75;;;-5.89;70.02
47763;BME280;33526;42.690;23.322;2023-02-11T06:41:02;96642.41;;;-6.18;69.84
47763;BME280;33526;42.690;23.322;2023-02-11T06:43:27;96589.31;;;-6.59;70.15
47763;BME280;33526;42.690;23.322;2023-02-11T06:45:54;96711.88;;;-5.77;70.29
47763;BME280;33526;42.690;23.322;2023-02-11T06:48:20;96610.72;;;-6.31;70.14
47763;BME280;33526;42.690;23.322;2023-02-11T06:50:46;96708.81;;;-5.49;70.18
47763;BME280;33526;42.690;23.322;2023-02-11T06:53:11;96634.03;;;-5.95;69.84
47763;BME280;33526;42.690;23.322;2023-02-11T06:55:37;96604.28;;;-6.18;69.60
47763;BME280;33526;42.690;23.322;2023-02-11T06:58:02;96641.56;;;-5.83;69.99
47763;BME280;33526;42.690;23.322;2023-02-11T07:00:28;96680.56;;;-5.53;69.65
47763;BME280;33526;42.690;23.322;2023-02-11T07:02:54;96601.53;;;-6.00;69.56
47763;BME280;33526;42.690;23.322;2023-02-11T07:05:20;96707.72;;;-5.09;69.19
47763;BME280;33526;42.690;23.322;2023-02-11T07:07:45;96714.53;;;-4.94;68.63
47763;BME280;33526;42.690;23.322;2023-02-11T07:10:11;96705.13;;;-5.06;68.67
47763;BME280;33526;42.690;23.322;2023-02-11T07:12:37;96664.56;;;-5.16;68.41
47763;BME280;33526;42.690;23.322;2023-02-11T07:15:04;96703.31;;;-4.93;68.42
47763;BME280;33526;42.690;23.322;2023-02-11T07:17:29;96656.50;;;-5.04;68.04
47763;BME280;33526;42.690;23.322;2023-02-11T07:19:54;96675.84;;;-4.88;67.52
47763;BME280;33526;42.690;23.322;2023-02-11T07:22:21;96653.94;;;-5.09;68.00
47763;BME280;33526;42.690;23.322;2023-02-11T07:24:46;96624.63;;;-5.21;67.86
47763;BME280;33526;42.690;23.322;2023-02-11T07:27:12;96685.88;;;-4.50;67.45
47763;BME280;33526;42.690;23.322;2023-02-11T07:29:37;96685.59;;;-4.36;67.27
47763;BME280;33526;42.690;23.322;2023-02-11T07:32:03;96697.13;;;-4.09;67.25
47763;BME280;33526;42.690;23.322;2023-02-11T07:34:29;96590.75;;;-4.69;66.49
47763;BME280;33526;42.690;23.322;2023-02-11T07:36:55;96554.28;;;-4.85;66.67
47763;BME280;33526;42.690;23.322;2023-02-11T07:39:20;96651.78;;;-4.23;66.52
47763;BME280;33526;42.690;23.322;2023-02-11T07:41:46;96587.13;;;-4.52;66.32
47763;BME280;33526;42.690;23.322;2023-02-11T07:44:13;96642.66;;;-4.27;65.93
47763;BME280;33526;42.690;23.322;2023-02-11T07:46:39;96596.09;;;-4.51;66.44
47763;BME280;33526;42.690;23.322;2023-02-11T07:49:08;96548.81;;;-4.85;66.50
47763;BME280;33526;42.690;23.322;2023-02-11T07:51:36;96632.44;;;-4.17;66.13
47763;BME280;33526;42.690;23.322;2023-02-11T07:54:02;96601.19;;;-4.29;65.69
47763;BME280;33526;42.690;23.322;2023-02-11T07:56:28;96645.72;;;-3.95;65.79
47763;BME280;33526;42.690;23.322;2023-02-11T07:58:55;96650.66;;;-3.88;65.55
47763;BME280;33526;42.690;23.322;2023-02-11T08:01:22;96681.16;;;-3.65;65.78
47763;BME280;33526;42.690;23.322;2023-02-11T08:03:50;96641.72;;;-3.64;65.61
47763;BME280;33526;42.690;23.322;2023-02-11T08:06:19;96670.50;;;-3.33;64.36
47763;BME280;33526;42.690;23.322;2023-02-11T08:08:47;96641.09;;;-3.49;64.87
47763;BME280;33526;42.690;23.322;2023-02-11T08:11:19;96522.03;;;-4.04;64.03
47763;BME280;33526;42.690;23.322;2023-02-11T08:13:47;96557.84;;;-3.85;64.63
47763;BME280;33526;42.690;23.322;2023-02-11T08:16:30;96676.47;;;-3.07;64.67
47763;BME280;33526;42.690;23.322;2023-02-11T08:21:38;96605.88;;;-3.25;63.54
47763;BME280;33526;42.690;23.322;2023-02-11T08:24:16;96489.28;;;-3.92;63.43
47763;BME280;33526;42.690;23.322;2023-02-11T08:27:01;96546.38;;;-3.29;63.30
47763;BME280;33526;42.690;23.322;2023-02-11T08:35:37;96661.97;;;-2.58;62.33
47763;BME280;33526;42.690;23.322;2023-02-11T08:38:56;96599.81;;;-2.82;62.57
47763;BME280;33526;42.690;23.322;2023-02-11T08:42:02;96496.47;;;-3.38;61.99
47763;BME280;33526;42.690;23.322;2023-02-11T08:44:52;96544.63;;;-2.84;61.64
47763;BME280;33526;42.690;23.322;2023-02-11T08:47:27;96651.09;;;-2.01;61.06
47763;BME280;33526;42.690;23.322;2023-02-11T08:50:19;96600.66;;;-2.41;61.07
47763;BME280;33526;42.690;23.322;2023-02-11T08:53:18;96664.69;;;-1.93;60.37
47763;BME280;33526;42.690;23.322;2023-02-11T08:56:12;96555.97;;;-2.57;61.60
47763;BME280;33526;42.690;23.322;2023-02-11T09:04:54;96653.72;;;-1.77;61.64
47763;BME280;33526;42.690;23.322;2023-02-11T09:11:08;96658.09;;;-1.76;60.64
47763;BME280;33526;42.690;23.322;2023-02-11T09:13:39;96541.19;;;-2.53;61.02
47763;BME280;33526;42.690;23.322;2023-02-11T09:16:55;96639.06;;;-1.68;60.45
47763;BME280;33526;42.690;23.322;2023-02-11T09:19:41;96529.81;;;-2.26;60.52
47763;BME280;33526;42.690;23.322;2023-02-11T09:24:36;96494.28;;;-2.23;57.95
47763;BME280;33526;42.690;23.322;2023-02-11T09:35:23;96465.28;;;-2.08;55.72
47763;BME280;33526;42.690;23.322;2023-02-11T09:37:54;96638.69;;;-0.91;55.92
47763;BME280;33526;42.690;23.322;2023-02-11T09:40:53;96482.38;;;-1.83;55.47
47763;BME280;33526;42.690;23.322;2023-02-11T09:59:48;96510.22;;;-1.33;54.48
47763;BME280;33526;42.690;23.322;2023-02-11T10:02:31;96453.94;;;-1.59;52.91
47763;BME280;33526;42.690;23.322;2023-02-11T10:25:32;96436.00;;;-0.43;50.37
47763;BME280;33526;42.690;23.322;2023-02-11T13:13:32;96097.59;;;1.68;40.25
47763;BME280;33526;42.690;23.322;2023-02-11T13:46:19;96287.00;;;2.89;37.81
47763;BME280;33526;42.690;23.322;2023-02-11T14:02:41;96263.25;;;2.74;38.13
47763;BME280;33526;42.690;23.322;2023-02-11T14:05:30;96166.81;;;2.18;38.05
47763;BME280;33526;42.690;23.322;2023-02-11T14:08:23;96266.88;;;2.85;37.01
47763;BME280;33526;42.690;23.322;2023-02-11T14:11:50;96265.69;;;2.86;37.54
47763;BME280;33526;42.690;23.322;2023-02-11T14:14:31;96204.38;;;2.44;37.85
47763;BME280;33526;42.690;23.322;2023-02-11T14:19:33;96265.66;;;2.79;38.15
47763;BME280;33526;42.690;23.322;2023-02-11T14:22:49;96255.81;;;2.85;38.15
47763;BME280;33526;42.690;23.322;2023-02-11T14:25:31;96199.66;;;2.45;38.80
47763;BME280;33526;42.690;23.322;2023-02-11T14:28:26;96223.81;;;2.70;38.89
47763;BME280;33526;42.690;23.322;2023-02-11T14:31:39;96243.97;;;2.88;38.75
47763;BME280;33526;42.690;23.322;2023-02-11T14:45:25;96245.88;;;2.62;40.99
47763;BME280;33526;42.690;23.322;2023-02-11T14:48:54;96248.22;;;2.60;41.17
47763;BME280;33526;42.690;23.322;2023-02-11T14:58:33;96244.31;;;2.68;42.62
47763;BME280;33526;42.690;23.322;2023-02-11T15:01:24;96237.19;;;2.60;41.99
47763;BME280;33526;42.690;23.322;2023-02-11T15:04:24;96246.63;;;2.48;42.46
47763;BME280;33526;42.690;23.322;2023-02-11T15:07:04;96241.09;;;2.48;41.57
47763;BME280;33526;42.690;23.322;2023-02-11T15:09:51;96175.47;;;2.13;41.44
47763;BME280;33526;42.690;23.322;2023-02-11T17:20:09;96030.66;;;-0.56;49.26
47763;BME280;33526;42.690;23.322;2023-02-11T17:26:21;96208.75;;;0.49;50.45
47763;BME280;33526;42.690;23.322;2023-02-11T17:37:58;96226.31;;;0.41;50.63
47763;BME280;33526;42.690;23.322;2023-02-11T17:41:00;96226.75;;;0.43;50.66
47763;BME280;33526;42.690;23.322;2023-02-11T17:43:57;96239.31;;;0.40;50.52
47763;BME280;33526;42.690;23.322;2023-02-11T17:49:42;96126.41;;;-0.31;51.12
47763;BME280;33526;42.690;23.322;2023-02-11T17:52:39;96029.41;;;-0.92;51.00
47763;BME280;33526;42.690;23.322;2023-02-11T17:55:32;96235.66;;;0.32;51.46
47763;BME280;33526;42.690;23.322;2023-02-11T17:58:21;96189.56;;;-0.08;51.22
47763;BME280;33526;42.690;23.322;2023-02-11T18:01:09;96247.00;;;0.27;51.86
47763;BME280;33526;42.690;23.322;2023-02-11T18:12:27;96194.38;;;-0.02;50.34
47763;BME280;33526;42.690;23.322;2023-02-11T18:15:05;96255.91;;;0.47;49.67
47763;BME280;33526;42.690;23.322;2023-02-11T18:28:22;96033.84;;;-1.11;49.19
47763;BME280;33526;42.690;23.322;2023-02-11T18:30:57;96053.66;;;-0.98;49.48
47763;BME280;33526;42.690;23.322;2023-02-11T18:41:53;96030.09;;;-0.99;48.94
47763;BME280;33526;42.690;23.322;2023-02-11T18:49:02;96207.31;;;0.28;49.16
47763;BME280;33526;42.690;23.322;2023-02-11T19:13:50;96212.31;;;0.19;48.42
47763;BME280;33526;42.690;23.322;2023-02-11T19:23:02;96203.63;;;0.17;46.93
47763;BME280;33526;42.690;23.322;2023-02-11T19:29:54;96188.66;;;0.14;46.38
47763;BME280;33526;42.690;23.322;2023-02-11T19:32:33;96000.13;;;-1.11;45.95
47763;BME280;33526;42.690;23.322;2023-02-11T19:35:38;96160.50;;;-0.06;46.14
47763;BME280;33526;42.690;23.322;2023-02-11T19:38:54;96190.19;;;0.12;45.22
47763;BME280;33526;42.690;23.322;2023-02-11T19:41:57;96187.03;;;0.10;45.45
47763;BME280;33526;42.690;23.322;2023-02-11T19:49:38;96073.81;;;-0.60;45.82
47763;BME280;33526;42.690;23.322;2023-02-11T19:52:32;96176.78;;;0.07;46.02
47763;BME280;33526;42.690;23.322;2023-02-11T19:55:14;95985.97;;;-1.13;45.19
47763;BME280;33526;42.690;23.322;2023-02-11T20:01:24;96185.56;;;0.19;44.85
47763;BME280;33526;42.690;23.322;2023-02-11T20:04:17;95994.41;;;-0.99;44.73
47763;BME280;33526;42.690;23.322;2023-02-11T20:07:08;96169.13;;;0.23;44.65
47763;BME280;33526;42.690;23.322;2023-02-11T20:10:24;96004.09;;;-0.79;44.42
47763;BME280;33526;42.690;23.322;2023-02-11T20:17:13;96093.22;;;-0.15;43.72
47763;BME280;33526;42.690;23.322;2023-02-11T20:20:34;96160.44;;;0.21;43.83
47763;BME280;33526;42.690;23.322;2023-02-11T20:26:38;96159.00;;;0.31;44.00
47763;BME280;33526;42.690;23.322;2023-02-11T20:33:19;96109.19;;;0.06;43.89
47763;BME280;33526;42.690;23.322;2023-02-11T20:41:30;96131.63;;;0.42;44.34
47763;BME280;33526;42.690;23.322;2023-02-11T20:44:14;95980.22;;;-0.74;43.70
47763;BME280;33526;42.690;23.322;2023-02-11T20:47:23;96138.16;;;0.30;44.00
47763;BME280;33526;42.690;23.322;2023-02-11T20:56:12;96064.53;;;-0.18;43.94
47763;BME280;33526;42.690;23.322;2023-02-11T21:01:54;96112.78;;;0.10;44.42
47763;BME280;33526;42.690;23.322;2023-02-11T21:04:45;95935.09;;;-1.07;45.01
47763;BME280;33526;42.690;23.322;2023-02-11T21:07:33;95928.03;;;-1.05;44.31
47763;BME280;33526;42.690;23.322;2023-02-11T21:10:26;96097.88;;;0.14;44.39
47763;BME280;33526;42.690;23.322;2023-02-11T21:18:29;96015.31;;;-0.30;44.15
47763;BME280;33526;42.690;23.322;2023-02-11T21:21:07;95993.09;;;-0.48;44.04
47763;BME280;33526;42.690;23.322;2023-02-11T21:23:46;96034.38;;;-0.11;44.48
47763;BME280;33526;42.690;23.322;2023-02-11T21:26:43;95999.19;;;-0.32;44.72
47763;BME280;33526;42.690;23.322;2023-02-11T21:29:25;96057.19;;;-0.07;44.04
47763;BME280;33526;42.690;23.322;2023-02-11T21:33:13;95867.75;;;-1.28;45.29
47763;BME280;33526;42.690;23.322;2023-02-11T21:36:37;95894.41;;;-0.98;44.59
47763;BME280;33526;42.690;23.322;2023-02-11T21:39:49;96067.50;;;0.04;44.24
47763;BME280;33526;42.690;23.322;2023-02-11T21:58:20;96058.75;;;-0.06;45.00
47763;BME280;33526;42.690;23.322;2023-02-11T22:01:52;95885.47;;;-1.22;45.74
47763;BME280;33526;42.690;23.322;2023-02-11T22:18:58;96077.28;;;-0.03;44.61
47763;BME280;33526;42.690;23.322;2023-02-11T22:21:33;95976.41;;;-0.66;44.56
47763;BME280;33526;42.690;23.322;2023-02-11T22:28:06;96080.81;;;-0.02;45.34
47763;BME280;33526;42.690;23.322;2023-02-11T22:45:19;95955.59;;;-0.98;46.58
47763;BME280;33526;42.690;23.322;2023-02-11T22:51:25;95869.47;;;-1.46;47.01
47763;BME280;33526;42.690;23.322;2023-02-11T22:56:50;96058.03;;;-0.03;46.80
47763;BME280;33526;42.690;23.322;2023-02-11T22:59:47;96008.22;;;-0.31;45.53
47763;BME280;33526;42.690;23.322;2023-02-11T23:05:12;95898.97;;;-1.09;45.38
47763;BME280;33526;42.690;23.322;2023-02-11T23:12:12;96059.34;;;0.11;45.45
47763;BME280;33526;42.690;23.322;2023-02-11T23:14:52;96010.63;;;-0.26;44.96
47763;BME280;33526;42.690;23.322;2023-02-11T23:17:32;95927.53;;;-0.84;45.19
47763;BME280;33526;42.690;23.322;2023-02-11T23:20:01;95841.41;;;-1.36;45.53
47763;BME280;33526;42.690;23.322;2023-02-11T23:23:27;96061.91;;;-0.07;45.84
47763;BME280;33526;42.690;23.322;2023-02-11T23:26:16;95951.09;;;-0.83;46.00
47763;BME280;33526;42.690;23.322;2023-02-11T23:29:38;95845.97;;;-1.47;46.00
47763;BME280;33526;42.690;23.322;2023-02-11T23:35:08;96036.09;;;-0.29;47.26
47763;BME280;33526;42.690;23.322;2023-02-11T23:38:19;96043.56;;;-0.30;47.56
47763;BME280;33526;42.690;23.322;2023-02-11T23:41:17;95897.97;;;-1.24;47.79
47763;BME280;33526;42.690;23.322;2023-02-11T23:44:46;96044.31;;;-0.33;47.98
47763;BME280;33526;42.690;23.322;2023-02-11T23:57:22;95895.09;;;-1.05;47.33
